Villa Flores, Puerto Rico
Current Conditions -  °F | °C
As of 8:53 AM on Wednesday 26 Nov 2014 (Local Time) from TJNR Reporting Station
Clear Clear  
Wind Chill: 83°   Ceiling: Unl
Heat Index: 89°   Visibility: 10mi
Dew Point: 73°   Wind: 8mph
Humidity: 72%   Direction: 80°E
Pressure: 30.07"   Gusts: NA
Location:  18.2667°N, 65.6476°W
Report Text: TJNR 261253Z AUTO 08007KT 10SM CLR 28/23 A3007 RMK AO2 SLP183 T02830228
Loading
Personal Weather Stations






























Interactive Weather Map New forecast layout! Learn more

10-Day Weather Forecast

Advertisements
Track Severe Weather on mobile